Date,TemperatureHighF,TemperatureAvgF,TemperatureLowF,DewpointHighF,DewpointAvgF,DewpointLowF,HumidityHigh,HumidityAvg,HumidityLow,PressureMaxIn,PressureMinIn,WindSpeedMaxMPH,WindSpeedAvgMPH,GustSpeedMaxMPH,PrecipitationSumIn
2013-1-1,74.0,73.2,72.0,-99.9,-99.9,-99.9,0,0,100,30.21,30.07,22,14,27,0.00
2013-1-2,75.0,72.3,67.0,-99.9,-99.9,-99.9,0,0,100,30.10,30.01,16,9,18,0.00
2013-1-3,77.0,73.1,68.0,-99.9,-99.9,-99.9,0,0,100,30.14,30.04,17,-84,19,0.00
2013-1-4,75.0,71.6,68.0,-99.9,-99.9,-99.9,0,0,100,30.24,30.11,18,9,20,0.00
2013-1-5,74.0,70.4,67.0,-99.9,-99.9,-99.9,0,0,100,30.26,30.17,18,-20,20,0.00
2013-1-6,76.0,75.0,69.0,-99.9,-99.9,-99.9,0,0,100,30.21,30.07,17,-17,19,0.00
2013-1-7,76.0,72.0,69.0,-99.9,-99.9,-99.9,0,0,100,30.17,30.08,23,11,26,0.00
2013-1-8,77.0,75.8,71.0,-99.9,-99.9,-99.9,0,0,100,30.22,30.09,21,14,27,0.00
2013-1-9,78.0,76.9,74.0,-99.9,-99.9,-99.9,0,0,100,30.29,30.17,22,17,27,0.00
2013-1-10,77.0,76.1,75.0,-99.9,-99.9,-99.9,0,0,100,30.31,30.20,24,18,27,0.00
2013-1-11,76.0,75.4,73.0,-99.9,-99.9,-99.9,0,0,100,30.27,30.17,21,17,29,0.00
2013-1-12,76.0,75.4,75.0,-99.9,-99.9,-99.9,0,0,100,30.19,30.11,21,13,23,0.00
2013-1-13,76.0,75.2,74.0,-99.9,-99.9,-99.9,0,0,100,30.14,30.08,20,15,24,0.00
2013-1-14,76.0,75.0,74.0,-99.9,-99.9,-99.9,0,0,100,30.19,30.14,17,12,21,0.00
2013-1-15,76.0,75.0,74.0,-99.9,-99.9,-99.9,0,0,100,30.15,30.06,18,13,21,0.00
2013-1-16,76.0,75.4,71.0,-99.9,-99.9,-99.9,0,0,100,30.12,30.03,17,-9,18,0.00
2013-1-17,76.0,71.2,62.0,-99.9,-99.9,-99.9,0,0,100,30.10,29.98,24,12,28,0.00
2013-1-18,71.0,62.6,52.0,-99.9,-99.9,-99.9,0,0,100,30.23,30.09,23,14,28,0.00
2013-1-19,74.0,70.1,67.0,-99.9,-99.9,-99.9,0,0,100,30.23,30.11,17,1,21,0.00
2013-1-20,74.0,70.6,66.0,-99.9,-99.9,-99.9,0,0,100,30.15,30.03,20,11,22,0.00
2013-1-21,75.0,72.8,67.0,-99.9,-99.9,-99.9,0,0,100,30.08,29.97,17,9,20,0.00
2013-1-22,72.0,68.1,63.0,-99.9,-99.9,-99.9,0,0,100,30.23,30.00,27,17,34,0.00
2013-1-23,71.0,67.9,62.0,-99.9,-99.9,-99.9,0,0,100,30.30,30.21,23,14,28,0.00
2013-1-24,70.0,66.6,62.0,-99.9,-99.9,-99.9,0,0,100,30.30,30.22,21,12,26,0.00
2013-1-25,74.0,67.2,60.0,-99.9,-99.9,-99.9,0,0,100,30.30,30.19,15,-6,19,0.00
2013-1-26,73.0,69.0,62.0,-99.9,-99.9,-99.9,0,0,100,30.27,30.18,14,8,17,0.00
2013-1-27,74.0,71.7,67.0,-99.9,-99.9,-99.9,0,0,100,30.30,30.21,17,10,20,0.00
2013-1-28,75.0,73.9,73.0,-99.9,-99.9,-99.9,0,0,100,30.33,30.24,21,16,24,0.00
2013-1-29,75.0,74.4,72.0,-99.9,-99.9,-99.9,0,0,100,30.25,30.14,20,16,23,0.00
2013-1-30,75.0,74.2,73.0,-99.9,-99.9,-99.9,0,0,100,30.14,29.98,25,19,29,0.00
2013-1-31,75.0,64.2,60.0,-99.9,-99.9,-99.9,0,0,100,30.19,29.99,22,11,25,0.00
2013-2-1,69.0,62.5,53.0,-99.9,-99.9,-99.9,0,0,100,30.28,30.17,26,17,32,0.00
2013-2-2,70.0,65.3,57.0,-99.9,-99.9,-99.9,0,0,100,30.27,30.13,15,8,19,0.00
2013-2-3,70.0,64.9,58.0,-99.9,-99.9,-99.9,0,0,100,30.18,30.09,20,-18,24,0.00
2013-2-4,70.0,63.7,52.0,-99.9,-99.9,-99.9,0,0,100,30.15,30.04,13,-63,15,0.00
2013-2-5,73.0,68.4,60.0,-99.9,-99.9,-99.9,0,0,100,30.10,30.02,14,-55,16,0.00
2013-2-6,76.0,71.3,65.0,-99.9,-99.9,-99.9,0,0,100,30.12,30.03,18,-27,20,0.00
2013-2-7,75.0,70.8,72.0,-99.9,-99.9,-99.9,0,0,100,30.09,29.96,106,17,130,0.00
2013-2-8,81.0,74.1,70.0,-99.9,-99.9,-99.9,0,0,100,30.03,29.92,20,9,22,0.00
2013-2-9,74.0,72.2,67.0,-99.9,-99.9,-99.9,0,0,100,30.16,30.00,21,13,24,0.00
2013-2-10,73.0,71.7,69.0,-99.9,-99.9,-99.9,0,0,100,30.25,30.14,24,18,27,0.00
2013-2-11,74.0,73.1,72.0,-99.9,-99.9,-99.9,0,0,100,30.21,30.10,21,17,25,0.00
2013-2-12,76.0,74.2,70.0,-99.9,-99.9,-99.9,0,0,100,30.11,29.96,24,16,28,0.00
2013-2-13,78.0,75.0,72.0,-99.9,-99.9,-99.9,0,0,100,30.00,29.88,28,16,32,0.00
2013-2-14,74.0,70.0,64.0,-99.9,-99.9,-99.9,0,0,100,29.99,29.85,27,11,33,0.00
2013-2-15,71.0,67.5,65.0,-99.9,-99.9,-99.9,0,0,100,30.01,29.92,27,10,31,0.00
2013-2-16,70.0,64.7,56.0,-99.9,-99.9,-99.9,0,0,100,30.06,29.86,22,12,30,0.00
2013-2-17,55.0,50.8,45.0,-99.9,-99.9,-99.9,0,0,100,30.28,30.06,25,17,34,0.00
2013-2-18,68.0,59.3,48.0,-99.9,-99.9,-99.9,0,0,100,30.31,30.19,23,16,27,0.00
2013-2-19,73.0,71.4,67.0,-99.9,-99.9,-99.9,0,0,100,30.19,30.08,22,16,28,0.00
2013-2-20,74.0,70.1,65.0,-99.9,-99.9,-99.9,0,0,100,30.10,30.00,15,8,17,0.00
2013-2-21,75.0,74.2,73.0,-99.9,-99.9,-99.9,0,0,100,30.08,29.98,16,11,19,0.00
2013-2-22,76.0,74.9,74.0,-99.9,-99.9,-99.9,0,0,100,30.09,30.00,24,18,27,0.00
2013-2-23,76.0,75.0,71.0,-99.9,-99.9,-99.9,0,0,100,30.04,29.90,25,19,28,0.00
2013-2-24,80.0,75.1,72.0,-99.9,-99.9,-99.9,0,0,100,29.98,29.89,17,10,19,0.00
2013-2-25,77.0,75.4,73.0,-99.9,-99.9,-99.9,0,0,100,29.90,29.80,21,12,24,0.00
2013-2-26,81.0,77.0,76.0,-99.9,-99.9,-99.9,0,0,100,29.87,29.78,28,18,32,0.00
2013-2-27,77.0,69.6,63.0,-99.9,-99.9,-99.9,0,0,100,29.95,29.84,14,7,19,0.00
2013-2-28,69.0,63.9,59.0,-99.9,-99.9,-99.9,0,0,100,29.98,29.89,14,8,21,0.00
2013-3-1,64.0,61.8,59.0,-99.9,-99.9,-99.9,0,0,100,29.97,29.88,14,8,20,0.00
2013-3-2,64.0,57.4,53.0,-99.9,-99.9,-99.9,0,0,100,30.01,29.93,25,12,32,0.00
2013-3-3,59.0,53.5,48.0,-99.9,-99.9,-99.9,0,0,100,30.12,29.94,20,11,28,0.00
2013-3-4,62.0,53.4,44.0,-99.9,-99.9,-99.9,0,0,100,30.19,30.10,21,12,29,0.00
2013-3-5,70.0,63.8,55.0,-99.9,-99.9,-99.9,0,0,100,30.16,30.07,19,10,21,0.00
2013-3-6,74.0,64.9,55.0,-99.9,-99.9,-99.9,0,0,100,30.08,29.93,21,12,32,0.00
2013-3-7,65.0,57.9,49.0,-99.9,-99.9,-99.9,0,0,100,30.16,30.05,19,11,27,0.00
2013-3-8,69.0,63.0,56.0,-99.9,-99.9,-99.9,0,0,100,30.19,30.09,17,11,22,0.00
2013-3-9,69.0,65.4,58.0,-99.9,-99.9,-99.9,0,0,100,30.18,30.08,20,12,24,0.00
2013-3-10,71.0,69.4,68.0,-99.9,-99.9,-99.9,0,0,100,30.15,30.06,22,15,24,0.00
2013-3-11,73.0,70.7,69.0,-99.9,-99.9,-99.9,0,0,100,30.11,29.94,160,18,206,0.00
2013-3-12,77.0,73.5,71.0,-99.9,-99.9,-99.9,0,0,100,29.99,29.90,26,19,30,0.00
2013-3-13,71.0,64.9,57.0,-99.9,-99.9,-99.9,0,0,100,30.11,29.96,27,14,31,0.00
2013-3-14,64.0,59.3,56.0,-99.9,-99.9,-99.9,0,0,100,30.18,30.06,24,13,28,0.00
2013-3-15,66.0,64.4,59.0,-99.9,-99.9,-99.9,0,0,100,30.23,30.14,18,12,26,0.00
2013-3-16,70.0,65.5,60.0,-99.9,-99.9,-99.9,0,0,100,30.18,30.08,17,2,21,0.00
2013-3-17,72.0,68.5,64.0,-99.9,-99.9,-99.9,0,0,100,30.14,30.02,17,10,20,0.00
2013-3-18,74.0,72.3,67.0,-99.9,-99.9,-99.9,0,0,100,30.07,29.95,22,15,25,0.00
2013-3-19,74.0,72.0,70.0,-99.9,-99.9,-99.9,0,0,100,30.00,29.83,22,0,28,0.00
2013-3-20,77.0,71.6,67.0,-99.9,-99.9,-99.9,0,0,100,29.96,29.79,15,-21,25,0.00
2013-3-21,69.0,65.4,62.0,-99.9,-99.9,-99.9,0,0,100,29.93,29.81,20,11,23,0.00
2013-3-22,74.0,69.6,63.0,-99.9,-99.9,-99.9,0,0,100,30.00,29.88,19,10,21,0.00
2013-3-23,76.0,75.0,73.0,-99.9,-99.9,-99.9,0,0,100,29.98,29.79,25,14,28,0.00
2013-3-24,86.0,78.3,71.0,-99.9,-99.9,-99.9,0,0,100,29.88,29.66,28,16,38,0.00
2013-3-25,77.0,72.8,67.0,-99.9,-99.9,-99.9,0,0,100,29.97,29.73,13,8,20,0.00
2013-3-26,66.0,59.9,55.0,-99.9,-99.9,-99.9,0,0,100,30.19,29.96,22,14,29,0.00
2013-3-27,62.0,55.6,48.0,-99.9,-99.9,-99.9,0,0,100,30.23,30.15,19,13,23,0.00
2013-3-28,67.0,60.7,51.0,-99.9,-99.9,-99.9,0,0,100,30.25,30.16,20,13,23,0.00
2013-3-29,69.0,65.4,58.0,-99.9,-99.9,-99.9,0,0,100,30.27,30.19,19,11,24,0.00
2013-3-30,70.0,68.0,67.0,-99.9,-99.9,-99.9,0,0,100,30.25,30.16,15,10,19,0.00
2013-3-31,74.0,71.7,67.0,-99.9,-99.9,-99.9,0,0,100,30.18,30.04,20,16,23,0.00
2013-4-1,84.0,75.6,73.0,-99.9,-99.9,-99.9,0,0,100,30.05,29.93,29,14,35,0.00
2013-4-2,75.0,71.8,66.0,-99.9,-99.9,-99.9,0,0,100,30.06,29.97,14,9,16,0.00
2013-4-3,76.0,74.8,74.0,-99.9,-99.9,-99.9,0,0,100,30.05,29.98,18,13,21,0.00
2013-4-4,76.0,74.5,69.0,-99.9,-99.9,-99.9,0,0,100,30.04,29.89,22,17,26,0.00
2013-4-5,75.0,69.7,67.0,-99.9,-99.9,-99.9,0,0,100,29.97,29.80,31,11,34,0.00
2013-4-6,73.0,68.4,60.0,-99.9,-99.9,-99.9,0,0,100,30.07,29.90,21,15,24,0.00
2013-4-7,74.0,73.0,72.0,-99.9,-99.9,-99.9,0,0,100,30.13,30.01,23,15,26,0.00
2013-4-8,75.0,73.8,73.0,-99.9,-99.9,-99.9,0,0,100,30.13,30.03,15,9,17,0.00
2013-4-9,75.0,74.4,74.0,-99.9,-99.9,-99.9,0,0,100,30.14,30.04,20,16,23,0.00
2013-4-10,77.0,75.6,74.0,-99.9,-99.9,-99.9,0,0,100,30.10,29.98,23,14,26,0.00
2013-4-11,77.0,76.2,76.0,-99.9,-99.9,-99.9,0,0,100,30.01,29.88,24,20,27,0.00
2013-4-12,79.0,77.5,77.0,-99.9,-99.9,-99.9,0,0,100,29.93,29.85,25,18,28,0.00
2013-4-13,81.0,76.6,71.0,-99.9,-99.9,-99.9,0,0,100,29.95,29.86,23,-6,28,0.00
2013-4-14,79.0,77.5,75.0,-99.9,-99.9,-99.9,0,0,100,29.96,29.89,17,-16,19,0.00
2013-4-15,80.0,75.8,70.0,-99.9,-99.9,-99.9,0,0,100,30.04,29.91,29,1,36,0.00
2013-4-16,80.0,77.5,74.0,-99.9,-99.9,-99.9,0,0,100,30.11,30.01,19,4,21,0.00
2013-4-17,77.0,76.5,76.0,-99.9,-99.9,-99.9,0,0,100,30.10,30.01,17,12,19,0.00
2013-4-18,79.0,78.0,76.0,-99.9,-99.9,-99.9,0,0,100,30.05,29.96,21,14,24,0.00
2013-4-19,80.0,79.3,78.0,-99.9,-99.9,-99.9,0,0,100,30.04,29.95,24,19,28,0.00
2013-4-20,80.0,77.5,73.0,-99.9,-99.9,-99.9,0,0,100,30.07,29.95,28,13,33,0.00
2013-4-21,78.0,76.5,73.0,-99.9,-99.9,-99.9,0,0,100,30.09,29.97,21,11,25,0.00
2013-4-22,78.0,74.5,71.0,-99.9,-99.9,-99.9,0,0,100,30.03,29.92,26,5,32,0.00
2013-4-23,77.0,75.8,73.0,-99.9,-99.9,-99.9,0,0,100,30.08,29.93,25,20,28,0.00
2013-4-24,78.0,75.9,74.0,-99.9,-99.9,-99.9,0,0,100,30.12,30.02,19,12,24,0.00
2013-4-25,76.0,75.1,74.0,-99.9,-99.9,-99.9,0,0,100,30.19,30.06,16,11,19,0.00
2013-4-26,76.0,75.0,74.0,-99.9,-99.9,-99.9,0,0,100,30.22,30.10,17,12,20,0.00
2013-4-27,76.0,75.4,74.0,-99.9,-99.9,-99.9,0,0,100,30.20,30.08,21,15,24,0.00
2013-4-28,77.0,75.4,74.0,-99.9,-99.9,-99.9,0,0,100,30.11,29.99,21,16,25,0.00
2013-4-29,78.0,76.8,76.0,-99.9,-99.9,-99.9,0,0,100,30.02,29.92,21,17,25,0.00
2013-4-30,78.0,76.2,67.0,-99.9,-99.9,-99.9,0,0,100,30.00,29.91,27,11,37,0.00
2013-5-1,79.0,76.1,70.0,-99.9,-99.9,-99.9,0,0,100,29.99,29.91,16,8,20,0.00
2013-5-2,77.0,74.3,70.0,-99.9,-99.9,-99.9,0,0,100,29.93,29.78,32,17,38,0.00
2013-5-3,82.0,74.0,68.0,-99.9,-99.9,-99.9,0,0,100,29.79,29.66,27,10,38,0.00
2013-5-4,84.0,75.9,69.0,-99.9,-99.9,-99.9,0,0,100,29.78,29.67,16,0,21,0.00
2013-5-5,78.0,73.4,68.0,-99.9,-99.9,-99.9,0,0,100,29.91,29.73,16,8,21,0.00
2013-5-6,77.0,71.9,64.0,-99.9,-99.9,-99.9,0,0,100,29.99,29.90,18,8,19,0.00
2013-5-7,80.0,71.7,64.0,-99.9,-99.9,-99.9,0,0,100,30.04,29.95,16,9,21,0.00
2013-5-8,78.0,72.0,64.0,-99.9,-99.9,-99.9,0,0,100,30.12,30.02,12,7,13,0.00
2013-5-9,80.0,75.8,69.0,-99.9,-99.9,-99.9,0,0,100,30.13,30.05,14,8,17,0.00
2013-5-10,80.0,77.9,77.0,-99.9,-99.9,-99.9,0,0,100,30.12,30.01,18,12,21,0.00
2013-5-11,80.0,78.5,74.0,-99.9,-99.9,-99.9,0,0,100,30.06,29.96,23,12,26,0.00
2013-5-12,80.0,76.4,71.0,-99.9,-99.9,-99.9,0,0,100,30.04,29.93,23,3,26,0.00
2013-5-13,84.0,76.1,72.0,-99.9,-99.9,-99.9,0,0,100,30.07,29.97,22,10,23,0.00
2013-5-14,78.0,75.3,74.0,-99.9,-99.9,-99.9,0,0,100,30.16,30.05,23,16,27,0.00
2013-5-15,76.0,75.3,74.0,-99.9,-99.9,-99.9,0,0,100,30.18,30.08,21,14,23,0.00
2013-5-16,77.0,70.1,74.0,-99.9,-99.9,-99.9,0,0,100,30.11,30.03,21,11,23,0.00
2013-5-17,79.0,76.7,74.0,-99.9,-99.9,-99.9,0,0,100,30.08,30.00,18,12,20,0.00
2013-5-18,79.0,78.2,76.0,-99.9,-99.9,-99.9,0,0,100,30.10,30.03,16,4,18,0.00
2013-5-19,79.0,78.2,78.0,-99.9,-99.9,-99.9,0,0,100,30.09,30.00,15,11,17,0.00
2013-5-20,79.0,76.9,69.0,-99.9,-99.9,-99.9,0,0,100,30.07,29.96,23,12,29,0.00
2013-5-21,78.0,75.1,69.0,-99.9,-99.9,-99.9,0,0,100,30.07,29.92,24,14,30,0.00
2013-5-22,79.0,77.0,73.0,-99.9,-99.9,-99.9,0,0,100,29.96,29.88,22,12,27,0.00
2013-5-23,88.0,80.0,74.0,-99.9,-99.9,-99.9,0,0,100,29.99,29.89,18,10,21,0.00
2013-5-24,82.0,79.9,76.0,-99.9,-99.9,-99.9,0,0,100,30.04,29.93,15,9,17,0.00
2013-5-25,81.0,78.7,76.0,-99.9,-99.9,-99.9,0,0,100,30.15,30.03,21,15,26,0.00
2013-5-26,79.0,77.7,77.0,-99.9,-99.9,-99.9,0,0,100,30.17,30.09,20,15,23,0.00
2013-5-27,79.0,78.2,77.0,-99.9,-99.9,-99.9,0,0,100,30.15,30.06,24,17,28,0.00
2013-5-28,79.0,77.8,72.0,-99.9,-99.9,-99.9,0,0,100,30.11,30.03,32,20,38,0.00
2013-5-29,80.0,77.6,72.0,-99.9,-99.9,-99.9,0,0,100,30.08,30.00,31,20,35,0.00
2013-5-30,80.0,77.9,73.0,-99.9,-99.9,-99.9,0,0,100,30.06,29.99,36,24,44,0.00
2013-5-31,79.0,77.9,74.0,-99.9,-99.9,-99.9,0,0,100,30.05,29.99,29,20,34,0.00
2013-6-1,80.0,78.3,76.0,-99.9,-99.9,-99.9,0,0,100,30.02,29.95,23,11,26,0.00
2013-6-2,82.0,78.2,75.0,-99.9,-99.9,-99.9,0,0,100,29.99,29.91,20,-15,22,0.00
2013-6-3,81.0,78.5,75.0,-99.9,-99.9,-99.9,0,0,100,30.02,29.90,17,7,19,0.00
2013-6-4,81.0,78.5,75.0,-99.9,-99.9,-99.9,0,0,100,30.04,29.94,13,-30,15,0.00
2013-6-5,81.0,80.8,80.0,-99.9,-99.9,-99.9,0,0,100,30.00,29.89,17,12,19,0.00
2013-6-6,82.0,79.7,75.0,-99.9,-99.9,-99.9,0,0,100,29.90,29.76,39,21,53,0.00
2013-6-7,87.0,77.8,74.0,-99.9,-99.9,-99.9,0,0,100,29.97,29.82,25,10,32,0.00
2013-6-8,79.0,76.4,74.0,-99.9,-99.9,-99.9,0,0,100,30.08,29.95,16,6,20,0.00
2013-8-5,84.0,80.6,77.0,-99.9,-99.9,-99.9,0,0,100,0.00,40.00,11,-226,13,0.00
2013-8-6,85.0,80.8,77.0,-99.9,-99.9,-99.9,0,0,100,29.94,29.89,12,-273,14,0.00
2013-8-7,84.0,82.9,81.0,-99.9,-99.9,-99.9,0,0,100,29.94,29.90,10,7,13,0.00
2013-8-8,84.0,83.0,83.0,-99.9,-99.9,-99.9,0,0,100,30.01,29.95,15,14,18,0.00
2013-8-9,84.0,80.2,80.0,-99.9,-99.9,-99.9,0,0,100,30.06,29.94,22,14,24,0.00
2013-8-10,84.0,79.6,82.0,-99.9,-99.9,-99.9,0,0,100,30.11,30.03,17,14,20,0.00
2013-8-11,85.0,82.5,82.0,-99.9,-99.9,-99.9,0,0,100,30.13,30.06,17,12,19,0.00
2013-8-12,84.0,62.0,82.0,-99.9,-99.9,-99.9,0,0,100,30.10,30.01,15,10,17,0.00
2013-8-13,84.0,0.7,84.0,-99.9,-99.9,-99.9,0,0,100,30.04,29.94,17,11,19,0.00
2013-8-14,-200.0,0.0,200.0,-99.9,-99.9,-99.9,0,0,100,30.01,29.92,17,12,21,0.00
2013-8-15,82.0,0.7,82.0,-99.9,-99.9,-99.9,0,0,100,30.05,29.95,24,12,29,0.00
2013-8-16,-200.0,0.0,200.0,-99.9,-99.9,-99.9,0,0,100,30.04,29.97,14,9,16,0.00
2013-8-17,-200.0,0.0,200.0,-99.9,-99.9,-99.9,0,0,100,30.07,29.99,15,12,17,0.00
2013-8-18,82.0,0.6,82.0,-99.9,-99.9,-99.9,0,0,100,30.07,29.99,20,6,33,0.00
2013-8-19,-200.0,0.0,200.0,-99.9,-99.9,-99.9,0,0,100,30.06,29.96,20,12,22,0.00
2013-8-20,84.0,1.6,83.0,-99.9,-99.9,-99.9,0,0,100,30.05,29.97,18,4,23,0.00
2013-8-21,84.0,1.3,84.0,-99.9,-99.9,-99.9,0,0,100,30.07,29.99,23,0,27,0.00
2013-8-22,84.0,7.5,83.0,-99.9,-99.9,-99.9,0,0,100,30.05,29.95,16,-32,18,0.00
2013-8-23,84.0,8.7,81.0,-99.9,-99.9,-99.9,0,0,100,30.01,29.93,18,-35,21,0.00
2013-8-24,83.0,4.9,83.0,-99.9,-99.9,-99.9,0,0,100,30.09,29.96,15,-49,17,0.00
2013-8-25,82.0,3.0,81.0,-99.9,-99.9,-99.9,0,0,100,30.14,30.02,14,-27,16,0.00
2013-8-26,82.0,2.3,76.0,-99.9,-99.9,-99.9,0,0,100,30.11,30.00,28,9,32,0.00
2013-8-27,-200.0,0.0,200.0,-99.9,-99.9,-99.9,0,0,100,30.04,29.97,17,6,23,0.00
2013-8-30,84.0,4.4,81.0,-99.9,-99.9,-99.9,0,0,100,29.99,29.89,18,-16,20,0.00
2013-8-31,83.0,4.9,82.0,-99.9,-99.9,-99.9,0,0,100,29.97,29.90,17,-36,19,0.00
2013-9-1,83.0,1.4,83.0,-99.9,-99.9,-99.9,0,0,100,29.99,29.91,11,-12,13,0.00
2013-9-2,84.0,7.5,79.0,-99.9,-99.9,-99.9,0,0,100,30.02,29.93,18,-55,25,0.00
2013-9-3,-200.0,0.0,200.0,-99.9,-99.9,-99.9,0,0,100,30.01,29.92,13,7,15,0.00
2013-9-4,85.0,3.4,84.0,-99.9,-99.9,-99.9,0,0,100,30.05,29.94,12,-2,17,0.00
2013-9-5,84.0,4.5,83.0,-99.9,-99.9,-99.9,0,0,100,30.06,29.98,16,-17,18,0.00
2013-9-6,84.0,2.6,84.0,-99.9,-99.9,-99.9,0,0,100,30.03,29.92,18,-12,20,0.00
2013-9-7,84.0,0.7,84.0,-99.9,-99.9,-99.9,0,0,100,29.97,29.89,17,8,20,0.00
2013-9-8,83.0,1.3,80.0,-99.9,-99.9,-99.9,0,0,100,29.94,29.85,13,-1,15,0.00
2013-9-9,-200.0,0.0,200.0,-99.9,-99.9,-99.9,0,0,100,29.99,29.88,22,9,25,0.00
2013-9-10,-200.0,0.0,200.0,-99.9,-99.9,-99.9,0,0,100,30.04,29.94,31,14,38,0.00
2013-9-11,-200.0,0.0,200.0,-99.9,-99.9,-99.9,0,0,100,30.05,29.96,32,12,35,0.00
2013-9-12,81.0,0.7,81.0,-99.9,-99.9,-99.9,0,0,100,30.00,29.88,13,7,15,0.00
2013-9-13,-200.0,0.0,200.0,-99.9,-99.9,-99.9,0,0,100,29.91,29.80,15,7,17,0.00
2013-9-14,-200.0,0.0,200.0,-99.9,-99.9,-99.9,0,0,100,29.96,29.81,15,8,17,0.00
2013-9-15,82.0,0.0,200.0,-99.9,-99.9,-99.9,0,0,100,30.05,29.90,25,11,27,0.00
2013-9-16,82.0,1.8,81.0,-99.9,-99.9,-99.9,0,0,100,30.04,29.95,25,16,31,0.00
2013-9-17,-200.0,0.0,200.0,-99.9,-99.9,-99.9,0,0,100,30.03,29.91,27,13,31,0.00
2013-9-18,-200.0,0.0,200.0,-99.9,-99.9,-99.9,0,0,100,29.99,29.90,22,11,24,0.00
2013-9-19,83.0,0.6,83.0,-99.9,-99.9,-99.9,0,0,100,30.00,29.91,21,14,25,0.00
2013-9-20,81.0,0.7,81.0,-99.9,-99.9,-99.9,0,0,100,29.98,29.89,22,6,26,0.00
2013-9-21,81.0,0.0,200.0,-99.9,-99.9,-99.9,0,0,100,29.91,29.77,14,8,16,0.00
2013-9-22,81.0,0.6,81.0,-99.9,-99.9,-99.9,0,0,100,29.85,29.75,17,11,20,0.00
2013-9-23,-200.0,0.0,200.0,-99.9,-99.9,-99.9,0,0,100,29.97,29.84,16,5,21,0.00
2013-9-24,84.0,0.7,84.0,-99.9,-99.9,-99.9,0,0,100,29.98,29.85,20,0,26,0.00
2013-9-25,82.0,0.7,82.0,-99.9,-99.9,-99.9,0,0,100,29.89,29.77,17,7,24,0.00
2013-9-26,-200.0,0.0,200.0,-99.9,-99.9,-99.9,0,0,100,29.84,29.77,17,7,25,0.00
2013-9-27,80.0,0.0,200.0,-99.9,-99.9,-99.9,0,0,100,29.91,29.80,26,11,29,0.00
2013-9-28,80.0,0.6,80.0,-99.9,-99.9,-99.9,0,0,100,29.95,29.86,24,12,33,0.00
2013-9-29,81.0,1.3,81.0,-99.9,-99.9,-99.9,0,0,100,29.96,29.88,18,1,20,0.00
2013-9-30,83.0,5.8,80.0,-99.9,-99.9,-99.9,0,0,100,29.99,29.89,14,-51,15,0.00
2013-10-1,-200.0,0.0,200.0,-99.9,-99.9,-99.9,0,0,100,30.02,29.99,18,16,22,0.00
2013-10-2,82.0,5.3,82.0,-99.9,-99.9,-99.9,0,0,100,30.03,29.96,19,-24,22,0.00
2013-10-3,83.0,8.9,80.0,-99.9,-99.9,-99.9,0,0,100,30.05,29.94,15,-58,16,0.00
2013-10-4,82.0,2.1,82.0,-99.9,-99.9,-99.9,0,0,100,30.05,29.97,14,-3,15,0.00
2013-10-5,82.0,4.6,82.0,-99.9,-99.9,-99.9,0,0,100,30.02,29.93,15,-19,17,0.00
2013-10-6,82.0,6.8,81.0,-99.9,-99.9,-99.9,0,0,100,29.95,29.86,13,-33,15,0.00
2013-10-7,83.0,6.3,74.0,-99.9,-99.9,-99.9,0,0,100,29.89,29.80,22,-30,28,0.00
2013-10-8,82.0,5.1,77.0,-99.9,-99.9,-99.9,0,0,100,29.91,29.83,15,-24,16,0.00
2013-10-9,80.0,4.1,76.0,-99.9,-99.9,-99.9,0,0,100,29.96,29.88,24,-27,27,0.00
2013-10-10,81.0,2.2,80.0,-99.9,-99.9,-99.9,0,0,100,30.00,29.93,21,-14,24,0.00
2013-10-11,80.0,3.5,79.0,-99.9,-99.9,-99.9,0,0,100,30.01,29.93,15,1,17,0.00
2013-10-12,81.0,4.3,80.0,-99.9,-99.9,-99.9,0,0,100,30.01,29.93,13,-13,15,0.00
2013-10-13,81.0,3.5,77.0,-99.9,-99.9,-99.9,0,0,100,30.04,29.96,20,-16,22,0.00
2013-10-14,-200.0,0.0,200.0,-99.9,-99.9,-99.9,0,0,100,30.00,29.90,14,9,17,0.00
2013-10-15,80.0,0.7,80.0,-99.9,-99.9,-99.9,0,0,100,29.95,29.86,15,10,17,0.00
2013-10-16,81.0,2.6,75.0,-99.9,-99.9,-99.9,0,0,100,29.94,29.88,12,-2,16,0.00
2013-10-17,81.0,4.2,79.0,-99.9,-99.9,-99.9,0,0,100,29.96,29.88,13,-2,15,0.00
2013-10-18,82.0,4.1,77.0,-99.9,-99.9,-99.9,0,0,100,29.98,29.89,14,-12,16,0.00
2013-10-19,81.0,1.6,81.0,-99.9,-99.9,-99.9,0,0,100,29.96,29.87,15,2,18,0.00
2013-10-20,81.0,2.1,80.0,-99.9,-99.9,-99.9,0,0,100,29.95,29.86,13,-8,16,0.00
2013-10-21,82.0,5.1,80.0,-99.9,-99.9,-99.9,0,0,100,29.99,29.90,15,-10,16,0.00
2013-10-22,83.0,3.2,81.0,-99.9,-99.9,-99.9,0,0,100,29.95,29.82,21,14,23,0.00
2013-10-23,80.0,2.3,78.0,-99.9,-99.9,-99.9,0,0,100,29.94,29.80,24,2,27,0.00
2013-10-24,78.0,2.8,76.0,-99.9,-99.9,-99.9,0,0,100,30.08,29.92,23,7,31,0.00
2013-10-25,-200.0,0.0,200.0,-99.9,-99.9,-99.9,0,0,100,30.14,30.05,23,20,27,0.00
2013-10-26,78.0,5.5,75.0,-99.9,-99.9,-99.9,0,0,100,30.13,30.04,21,-60,25,0.00
2013-10-27,78.0,3.0,70.0,-99.9,-99.9,-99.9,0,0,100,30.08,30.01,18,0,20,0.00
2013-10-28,80.0,3.1,78.0,-99.9,-99.9,-99.9,0,0,100,30.13,30.04,17,-18,20,0.00
2013-10-29,81.0,3.1,80.0,-99.9,-99.9,-99.9,0,0,100,30.16,30.08,23,6,26,0.00
2013-10-30,80.0,4.8,78.0,-99.9,-99.9,-99.9,0,0,100,30.17,30.08,23,9,26,0.00
2013-10-31,80.0,2.2,78.0,-99.9,-99.9,-99.9,0,0,100,30.11,29.99,23,16,25,0.00
2013-11-1,81.0,3.0,80.0,-99.9,-99.9,-99.9,0,0,100,30.00,29.88,19,6,21,0.00
2013-11-2,86.0,4.9,75.0,-99.9,-99.9,-99.9,0,0,100,29.92,29.79,15,-13,19,0.00
2013-11-3,78.0,5.2,70.0,-99.9,-99.9,-99.9,0,0,100,30.01,29.87,29,10,34,0.00
2013-11-4,78.0,7.1,71.0,-99.9,-99.9,-99.9,0,0,100,30.06,30.00,34,5,39,0.00
2013-11-5,78.0,1.4,78.0,-99.9,-99.9,-99.9,0,0,100,30.08,30.01,29,26,33,0.00
2013-11-6,79.0,3.0,78.0,-99.9,-99.9,-99.9,0,0,100,30.06,29.99,27,7,32,0.00
2013-11-7,79.0,5.9,73.0,-99.9,-99.9,-99.9,0,0,100,30.00,29.91,20,2,23,0.00
2013-11-8,80.0,4.5,72.0,-99.9,-99.9,-99.9,0,0,100,30.03,29.92,33,10,40,0.00
2013-11-9,78.0,8.2,76.0,-99.9,-99.9,-99.9,0,0,100,30.10,30.00,30,6,37,0.00
2013-11-10,79.0,2.2,78.0,-99.9,-99.9,-99.9,0,0,100,30.11,30.04,22,16,26,0.00
2013-11-11,79.0,5.8,78.0,-99.9,-99.9,-99.9,0,0,100,30.11,30.04,18,-13,22,0.00
2013-11-12,79.0,2.6,78.0,-99.9,-99.9,-99.9,0,0,100,30.07,29.96,15,10,17,0.00
2013-11-13,74.0,1.8,73.0,-99.9,-99.9,-99.9,0,0,100,30.21,29.98,38,24,44,0.00
2013-11-14,74.0,1.2,73.0,-99.9,-99.9,-99.9,0,0,100,30.23,30.13,31,24,37,0.00
2013-11-15,77.0,0.6,77.0,-99.9,-99.9,-99.9,0,0,100,30.14,30.02,24,19,30,0.00
2013-11-16,79.0,0.6,79.0,-99.9,-99.9,-99.9,0,0,100,30.09,30.01,23,16,26,0.00
2013-11-17,79.0,1.3,79.0,-99.9,-99.9,-99.9,0,0,100,30.07,29.99,22,15,25,0.00
2013-11-18,78.0,1.2,78.0,-99.9,-99.9,-99.9,0,0,100,30.02,29.91,13,7,14,0.00
2013-11-19,74.0,1.2,74.0,-99.9,-99.9,-99.9,0,0,100,29.92,29.85,12,5,13,0.00
2013-11-22,-200.0,0.0,200.0,-99.9,-99.9,-99.9,0,0,100,0.00,40.00,17,17,19,0.00
2013-11-23,-200.0,0.0,200.0,-99.9,-99.9,-99.9,0,0,100,0.00,40.00,16,14,21,0.00
2013-11-26,-200.0,0.0,200.0,-99.9,-99.9,-99.9,0,0,100,0.00,40.00,10,10,13,0.00
2013-11-27,-200.0,0.0,200.0,-99.9,-99.9,-99.9,0,0,100,0.00,40.00,6,6,9,0.00
2013-11-30,-200.0,0.0,200.0,-99.9,-99.9,-99.9,0,0,100,0.00,40.00,9,9,12,0.00
2013-12-2,-200.0,0.0,200.0,-99.9,-99.9,-99.9,0,0,100,0.00,40.00,11,11,15,0.00
2013-12-3,74.0,1.1,74.0,-99.9,-99.9,-99.9,0,0,100,29.98,29.91,11,7,13,0.00
2013-12-4,70.0,0.6,70.0,-99.9,-99.9,-99.9,0,0,100,30.08,29.97,15,9,18,0.00
2013-12-5,78.0,0.6,78.0,-99.9,-99.9,-99.9,0,0,100,30.15,30.06,23,12,28,0.00
2013-12-6,-200.0,0.0,200.0,-99.9,-99.9,-99.9,0,0,100,30.18,30.08,22,16,24,0.00
2013-12-7,74.0,1.3,71.0,-99.9,-99.9,-99.9,0,0,100,30.21,30.14,19,1,22,0.00
2013-12-8,79.0,3.6,77.0,-99.9,-99.9,-99.9,0,0,100,30.20,30.11,27,7,32,0.00
2013-12-9,79.0,3.5,78.0,-99.9,-99.9,-99.9,0,0,100,30.19,30.10,21,16,25,0.00
2013-12-10,78.0,2.8,78.0,-99.9,-99.9,-99.9,0,0,100,30.15,30.07,18,13,22,0.00
2013-12-11,80.0,4.4,72.0,-99.9,-99.9,-99.9,0,0,100,30.19,30.11,10,-2,11,0.00
2013-12-12,76.0,5.4,72.0,-99.9,-99.9,-99.9,0,0,100,30.21,30.12,30,-3,34,0.00
2013-12-13,74.0,4.5,72.0,-99.9,-99.9,-99.9,0,0,100,30.19,30.09,26,20,31,0.00
2013-12-14,78.0,2.3,75.0,-99.9,-99.9,-99.9,0,0,100,30.11,29.98,25,20,29,0.00
2013-12-15,80.0,6.6,72.0,-99.9,-99.9,-99.9,0,0,100,30.04,29.91,21,11,24,0.00
2013-12-16,68.0,3.1,65.0,-99.9,-99.9,-99.9,0,0,100,30.14,30.02,20,12,22,0.00
2013-12-17,73.0,3.6,59.0,-99.9,-99.9,-99.9,0,0,100,30.17,30.09,18,2,21,0.00
2013-12-18,71.0,5.5,62.0,-99.9,-99.9,-99.9,0,0,100,30.22,30.12,23,-6,26,0.00
2013-12-19,75.0,2.8,73.0,-99.9,-99.9,-99.9,0,0,100,30.23,30.15,19,-5,23,0.00
2013-12-20,78.0,4.2,75.0,-99.9,-99.9,-99.9,0,0,100,30.18,30.10,20,16,22,0.00
2013-12-21,78.0,4.2,77.0,-99.9,-99.9,-99.9,0,0,100,30.14,30.06,25,19,28,0.00
2013-12-22,78.0,3.0,78.0,-99.9,-99.9,-99.9,0,0,100,30.15,30.07,25,19,30,0.00
2013-12-23,78.0,6.3,76.0,-99.9,-99.9,-99.9,0,0,100,30.17,30.10,22,17,25,0.00
2013-12-24,81.0,4.3,70.0,-99.9,-99.9,-99.9,0,0,100,30.16,30.08,31,14,36,0.00
2013-12-25,73.0,1.7,72.0,-99.9,-99.9,-99.9,0,0,100,30.16,30.09,27,22,32,0.00
2013-12-26,76.0,6.2,74.0,-99.9,-99.9,-99.9,0,0,100,30.16,30.06,22,7,25,0.00
2013-12-27,76.0,2.9,76.0,-99.9,-99.9,-99.9,0,0,100,30.19,30.08,22,17,24,0.00
2013-12-28,77.0,2.0,75.0,-99.9,-99.9,-99.9,0,0,100,30.17,30.02,27,21,31,0.00
2013-12-29,78.0,2.1,75.0,-99.9,-99.9,-99.9,0,0,100,30.02,29.91,26,-11,31,0.00
2013-12-30,72.0,2.6,71.0,-99.9,-99.9,-99.9,0,0,100,30.13,29.96,20,10,23,0.00
2013-12-31,75.0,3.4,74.0,-99.9,-99.9,-99.9,0,0,100,30.22,30.09,24,18,28,0.00
2014-1-1,78.0,6.0,73.0,-99.9,-99.9,-99.9,0,0,100,30.19,30.03,23,10,27,0.00
2014-1-2,81.0,4.2,77.0,-99.9,-99.9,-99.9,0,0,100,30.04,29.85,23,16,28,0.00